sensor_id;sensor_type;location;lat;lon;timestamp;P1;durP1;ratioP1;P2;durP2;ratioP2
17648;SDS011;8943;51.110;-4.158;2023-04-16T00:13:29;6.73;;;1.67;;
17648;SDS011;8943;51.110;-4.158;2023-04-16T00:24:40;5.07;;;1.53;;
17648;SDS011;8943;51.110;-4.158;2023-04-16T00:41:45;7.57;;;1.70;;
17648;SDS011;8943;51.110;-4.158;2023-04-16T00:44:30;5.23;;;1.70;;
17648;SDS011;8943;51.110;-4.158;2023-04-16T01:59:51;6.97;;;1.87;;
17648;SDS011;8943;51.110;-4.158;2023-04-16T02:33:39;3.60;;;1.50;;
17648;SDS011;8943;51.110;-4.158;2023-04-16T02:54:22;5.80;;;1.73;;
17648;SDS011;8943;51.110;-4.158;2023-04-16T02:57:40;9.90;;;1.90;;
17648;SDS011;8943;51.110;-4.158;2023-04-16T03:00:55;3.67;;;1.50;;
17648;SDS011;8943;51.110;-4.158;2023-04-16T03:04:52;4.23;;;1.73;;
17648;SDS011;8943;51.110;-4.158;2023-04-16T03:07:59;4.43;;;1.47;;
17648;SDS011;8943;51.110;-4.158;2023-04-16T03:14:41;6.53;;;1.93;;
17648;SDS011;8943;51.110;-4.158;2023-04-16T03:17:39;5.53;;;1.60;;
17648;SDS011;8943;51.110;-4.158;2023-04-16T03:20:14;5.67;;;1.87;;
17648;SDS011;8943;51.110;-4.158;2023-04-16T03:23:08;5.10;;;1.50;;
17648;SDS011;8943;51.110;-4.158;2023-04-16T03:26:03;2.27;;;1.40;;
17648;SDS011;8943;51.110;-4.158;2023-04-16T03:29:27;6.17;;;1.63;;
17648;SDS011;8943;51.110;-4.158;2023-04-16T03:46:32;3.80;;;1.70;;
17648;SDS011;8943;51.110;-4.158;2023-04-16T03:49:01;4.83;;;1.30;;
17648;SDS011;8943;51.110;-4.158;2023-04-16T03:51:31;7.80;;;1.63;;
17648;SDS011;8943;51.110;-4.158;2023-04-16T03:54:04;4.37;;;1.57;;
17648;SDS011;8943;51.110;-4.158;2023-04-16T03:56:41;6.57;;;1.73;;
17648;SDS011;8943;51.110;-4.158;2023-04-16T03:59:16;7.50;;;1.63;;
17648;SDS011;8943;51.110;-4.158;2023-04-16T04:01:45;10.00;;;1.83;;
17648;SDS011;8943;51.110;-4.158;2023-04-16T04:04:15;5.30;;;1.60;;
17648;SDS011;8943;51.110;-4.158;2023-04-16T04:06:45;4.73;;;1.50;;
17648;SDS011;8943;51.110;-4.158;2023-04-16T04:09:14;3.47;;;1.40;;
17648;SDS011;8943;51.110;-4.158;2023-04-16T04:11:43;5.13;;;1.60;;
17648;SDS011;8943;51.110;-4.158;2023-04-16T04:14:12;5.70;;;1.80;;
17648;SDS011;8943;51.110;-4.158;2023-04-16T04:16:44;3.97;;;1.57;;
17648;SDS011;8943;51.110;-4.158;2023-04-16T04:19:13;2.80;;;1.40;;
17648;SDS011;8943;51.110;-4.158;2023-04-16T04:21:47;3.33;;;1.53;;
17648;SDS011;8943;51.110;-4.158;2023-04-16T04:24:22;3.77;;;1.57;;
17648;SDS011;8943;51.110;-4.158;2023-04-16T04:26:51;4.97;;;1.60;;
17648;SDS011;8943;51.110;-4.158;2023-04-16T04:29:20;2.47;;;1.33;;
17648;SDS011;8943;51.110;-4.158;2023-04-16T04:31:51;7.17;;;1.83;;
17648;SDS011;8943;51.110;-4.158;2023-04-16T04:34:27;6.60;;;1.53;;
17648;SDS011;8943;51.110;-4.158;2023-04-16T04:36:59;5.87;;;1.40;;
17648;SDS011;8943;51.110;-4.158;2023-04-16T04:39:28;5.50;;;1.50;;
17648;SDS011;8943;51.110;-4.158;2023-04-16T04:41:59;3.10;;;1.27;;
17648;SDS011;8943;51.110;-4.158;2023-04-16T04:44:39;5.20;;;1.60;;
17648;SDS011;8943;51.110;-4.158;2023-04-16T04:47:17;5.57;;;1.60;;
17648;SDS011;8943;51.110;-4.158;2023-04-16T04:49:49;4.20;;;1.30;;
17648;SDS011;8943;51.110;-4.158;2023-04-16T04:52:22;3.43;;;1.37;;
17648;SDS011;8943;51.110;-4.158;2023-04-16T04:54:52;6.13;;;1.40;;
17648;SDS011;8943;51.110;-4.158;2023-04-16T04:57:22;5.00;;;1.40;;
17648;SDS011;8943;51.110;-4.158;2023-04-16T04:59:53;5.13;;;1.30;;
17648;SDS011;8943;51.110;-4.158;2023-04-16T05:02:48;5.20;;;1.30;;
17648;SDS011;8943;51.110;-4.158;2023-04-16T05:05:17;4.53;;;1.37;;
17648;SDS011;8943;51.110;-4.158;2023-04-16T05:07:46;3.90;;;1.57;;
17648;SDS011;8943;51.110;-4.158;2023-04-16T05:10:15;6.50;;;1.60;;
17648;SDS011;8943;51.110;-4.158;2023-04-16T05:12:44;4.90;;;1.20;;
17648;SDS011;8943;51.110;-4.158;2023-04-16T05:15:14;3.40;;;1.30;;
17648;SDS011;8943;51.110;-4.158;2023-04-16T05:17:51;1.67;;;1.20;;
17648;SDS011;8943;51.110;-4.158;2023-04-16T05:20:19;5.73;;;1.40;;
17648;SDS011;8943;51.110;-4.158;2023-04-16T05:22:48;6.93;;;1.63;;
17648;SDS011;8943;51.110;-4.158;2023-04-16T05:25:16;8.30;;;1.80;;
17648;SDS011;8943;51.110;-4.158;2023-04-16T05:27:44;3.80;;;1.60;;
17648;SDS011;8943;51.110;-4.158;2023-04-16T05:30:12;6.70;;;1.40;;
17648;SDS011;8943;51.110;-4.158;2023-04-16T05:32:41;3.77;;;1.70;;
17648;SDS011;8943;51.110;-4.158;2023-04-16T05:35:10;3.70;;;1.60;;
17648;SDS011;8943;51.110;-4.158;2023-04-16T05:37:41;11.43;;;1.63;;
17648;SDS011;8943;51.110;-4.158;2023-04-16T05:40:11;3.37;;;0.83;;
17648;SDS011;8943;51.110;-4.158;2023-04-16T05:42:41;5.03;;;1.57;;
17648;SDS011;8943;51.110;-4.158;2023-04-16T05:45:10;3.80;;;1.30;;
17648;SDS011;8943;51.110;-4.158;2023-04-16T05:47:39;4.73;;;1.27;;
17648;SDS011;8943;51.110;-4.158;2023-04-16T05:50:07;4.40;;;1.30;;
17648;SDS011;8943;51.110;-4.158;2023-04-16T05:52:38;2.77;;;1.13;;
17648;SDS011;8943;51.110;-4.158;2023-04-16T05:55:07;4.73;;;1.47;;
17648;SDS011;8943;51.110;-4.158;2023-04-16T05:57:36;6.27;;;1.93;;
17648;SDS011;8943;51.110;-4.158;2023-04-16T06:00:05;4.33;;;1.37;;
17648;SDS011;8943;51.110;-4.158;2023-04-16T06:02:34;4.03;;;1.20;;
17648;SDS011;8943;51.110;-4.158;2023-04-16T06:05:03;6.80;;;2.13;;
17648;SDS011;8943;51.110;-4.158;2023-04-16T06:07:32;5.67;;;1.60;;
17648;SDS011;8943;51.110;-4.158;2023-04-16T06:10:01;3.13;;;1.20;;
17648;SDS011;8943;51.110;-4.158;2023-04-16T06:12:30;8.43;;;1.70;;
17648;SDS011;8943;51.110;-4.158;2023-04-16T06:14:59;4.60;;;1.80;;
17648;SDS011;8943;51.110;-4.158;2023-04-16T06:17:27;7.23;;;1.90;;
17648;SDS011;8943;51.110;-4.158;2023-04-16T06:19:55;5.10;;;2.50;;
17648;SDS011;8943;51.110;-4.158;2023-04-16T06:22:23;5.57;;;1.70;;
17648;SDS011;8943;51.110;-4.158;2023-04-16T06:24:52;5.27;;;1.53;;
17648;SDS011;8943;51.110;-4.158;2023-04-16T06:27:22;4.10;;;1.10;;
17648;SDS011;8943;51.110;-4.158;2023-04-16T06:29:50;2.23;;;1.30;;
17648;SDS011;8943;51.110;-4.158;2023-04-16T06:32:18;6.63;;;2.30;;
17648;SDS011;8943;51.110;-4.158;2023-04-16T06:34:46;3.73;;;1.40;;
17648;SDS011;8943;51.110;-4.158;2023-04-16T06:37:15;2.80;;;1.70;;
17648;SDS011;8943;51.110;-4.158;2023-04-16T06:39:43;5.07;;;1.90;;
17648;SDS011;8943;51.110;-4.158;2023-04-16T06:42:13;4.27;;;1.37;;
17648;SDS011;8943;51.110;-4.158;2023-04-16T06:44:44;7.20;;;1.77;;
17648;SDS011;8943;51.110;-4.158;2023-04-16T06:47:13;5.07;;;2.10;;
17648;SDS011;8943;51.110;-4.158;2023-04-16T06:49:43;3.77;;;2.30;;
17648;SDS011;8943;51.110;-4.158;2023-04-16T06:52:12;4.17;;;1.77;;
17648;SDS011;8943;51.110;-4.158;2023-04-16T06:54:41;6.63;;;2.30;;
17648;SDS011;8943;51.110;-4.158;2023-04-16T06:57:10;5.70;;;1.70;;
17648;SDS011;8943;51.110;-4.158;2023-04-16T06:59:40;7.53;;;2.10;;
17648;SDS011;8943;51.110;-4.158;2023-04-16T07:16:20;5.43;;;2.33;;
17648;SDS011;8943;51.110;-4.158;2023-04-16T07:19:18;5.50;;;2.50;;
17648;SDS011;8943;51.110;-4.158;2023-04-16T07:22:02;6.43;;;2.60;;
17648;SDS011;8943;51.110;-4.158;2023-04-16T07:24:58;5.27;;;2.37;;
17648;SDS011;8943;51.110;-4.158;2023-04-16T07:27:31;5.73;;;3.13;;
17648;SDS011;8943;51.110;-4.158;2023-04-16T07:29:59;7.53;;;3.23;;
17648;SDS011;8943;51.110;-4.158;2023-04-16T07:32:29;5.37;;;2.17;;
17648;SDS011;8943;51.110;-4.158;2023-04-16T07:34:58;7.33;;;2.70;;
17648;SDS011;8943;51.110;-4.158;2023-04-16T07:37:29;6.77;;;3.10;;
17648;SDS011;8943;51.110;-4.158;2023-04-16T07:39:57;5.77;;;2.80;;
17648;SDS011;8943;51.110;-4.158;2023-04-16T07:42:26;8.23;;;3.20;;
17648;SDS011;8943;51.110;-4.158;2023-04-16T07:44:54;7.43;;;2.90;;
17648;SDS011;8943;51.110;-4.158;2023-04-16T07:47:22;4.33;;;2.20;;
17648;SDS011;8943;51.110;-4.158;2023-04-16T07:49:53;7.27;;;3.37;;
17648;SDS011;8943;51.110;-4.158;2023-04-16T07:52:21;9.63;;;2.93;;
17648;SDS011;8943;51.110;-4.158;2023-04-16T07:54:49;9.07;;;3.60;;
17648;SDS011;8943;51.110;-4.158;2023-04-16T07:57:18;5.17;;;3.00;;
17648;SDS011;8943;51.110;-4.158;2023-04-16T07:59:46;6.73;;;2.90;;
17648;SDS011;8943;51.110;-4.158;2023-04-16T08:02:15;9.13;;;3.27;;
17648;SDS011;8943;51.110;-4.158;2023-04-16T08:04:43;8.70;;;3.70;;
17648;SDS011;8943;51.110;-4.158;2023-04-16T08:07:14;9.07;;;3.37;;
17648;SDS011;8943;51.110;-4.158;2023-04-16T08:09:46;14.20;;;4.83;;
17648;SDS011;8943;51.110;-4.158;2023-04-16T08:12:15;11.03;;;4.30;;
17648;SDS011;8943;51.110;-4.158;2023-04-16T08:14:44;6.30;;;2.97;;
17648;SDS011;8943;51.110;-4.158;2023-04-16T08:17:13;7.60;;;2.73;;
17648;SDS011;8943;51.110;-4.158;2023-04-16T08:19:42;10.23;;;3.73;;
17648;SDS011;8943;51.110;-4.158;2023-04-16T08:22:10;5.63;;;3.27;;
17648;SDS011;8943;51.110;-4.158;2023-04-16T08:24:40;8.03;;;3.47;;
17648;SDS011;8943;51.110;-4.158;2023-04-16T08:27:08;8.10;;;2.93;;
17648;SDS011;8943;51.110;-4.158;2023-04-16T08:29:46;9.43;;;3.90;;
17648;SDS011;8943;51.110;-4.158;2023-04-16T08:32:14;5.60;;;3.20;;
17648;SDS011;8943;51.110;-4.158;2023-04-16T08:34:42;8.93;;;3.43;;
17648;SDS011;8943;51.110;-4.158;2023-04-16T08:37:11;9.50;;;3.93;;
17648;SDS011;8943;51.110;-4.158;2023-04-16T08:39:53;7.87;;;3.60;;
17648;SDS011;8943;51.110;-4.158;2023-04-16T08:42:22;10.63;;;3.50;;
17648;SDS011;8943;51.110;-4.158;2023-04-16T08:45:01;8.63;;;3.40;;
17648;SDS011;8943;51.110;-4.158;2023-04-16T08:47:36;6.07;;;3.10;;
17648;SDS011;8943;51.110;-4.158;2023-04-16T08:50:06;7.63;;;3.37;;
17648;SDS011;8943;51.110;-4.158;2023-04-16T08:52:42;6.83;;;3.03;;
17648;SDS011;8943;51.110;-4.158;2023-04-16T08:55:15;9.00;;;3.37;;
17648;SDS011;8943;51.110;-4.158;2023-04-16T08:57:46;7.43;;;2.87;;
17648;SDS011;8943;51.110;-4.158;2023-04-16T09:00:18;8.67;;;4.00;;
17648;SDS011;8943;51.110;-4.158;2023-04-16T09:02:47;7.03;;;3.33;;
17648;SDS011;8943;51.110;-4.158;2023-04-16T09:05:17;5.50;;;3.10;;
17648;SDS011;8943;51.110;-4.158;2023-04-16T09:07:47;6.37;;;2.87;;
17648;SDS011;8943;51.110;-4.158;2023-04-16T09:10:19;7.30;;;3.17;;
17648;SDS011;8943;51.110;-4.158;2023-04-16T09:12:48;8.10;;;3.43;;
17648;SDS011;8943;51.110;-4.158;2023-04-16T09:15:17;9.00;;;3.03;;
17648;SDS011;8943;51.110;-4.158;2023-04-16T09:17:47;8.00;;;3.17;;
17648;SDS011;8943;51.110;-4.158;2023-04-16T09:20:15;6.80;;;3.40;;
17648;SDS011;8943;51.110;-4.158;2023-04-16T09:22:43;7.80;;;3.30;;
17648;SDS011;8943;51.110;-4.158;2023-04-16T09:25:12;10.27;;;3.60;;
17648;SDS011;8943;51.110;-4.158;2023-04-16T09:27:42;6.50;;;3.00;;
17648;SDS011;8943;51.110;-4.158;2023-04-16T09:30:23;7.47;;;3.50;;
17648;SDS011;8943;51.110;-4.158;2023-04-16T09:33:10;10.30;;;3.50;;
17648;SDS011;8943;51.110;-4.158;2023-04-16T09:35:44;8.50;;;3.30;;
17648;SDS011;8943;51.110;-4.158;2023-04-16T09:38:14;6.43;;;3.30;;
17648;SDS011;8943;51.110;-4.158;2023-04-16T09:40:43;5.07;;;2.63;;
17648;SDS011;8943;51.110;-4.158;2023-04-16T09:43:14;8.87;;;3.30;;
17648;SDS011;8943;51.110;-4.158;2023-04-16T09:45:47;6.53;;;2.77;;
17648;SDS011;8943;51.110;-4.158;2023-04-16T09:48:20;9.03;;;2.70;;
17648;SDS011;8943;51.110;-4.158;2023-04-16T09:50:55;7.40;;;2.60;;
17648;SDS011;8943;51.110;-4.158;2023-04-16T09:53:24;6.63;;;2.50;;
17648;SDS011;8943;51.110;-4.158;2023-04-16T09:55:55;5.67;;;2.33;;
17648;SDS011;8943;51.110;-4.158;2023-04-16T09:58:25;8.27;;;2.37;;
17648;SDS011;8943;51.110;-4.158;2023-04-16T10:00:54;7.87;;;2.40;;
17648;SDS011;8943;51.110;-4.158;2023-04-16T10:03:33;7.50;;;2.90;;
17648;SDS011;8943;51.110;-4.158;2023-04-16T10:06:06;7.70;;;2.40;;
17648;SDS011;8943;51.110;-4.158;2023-04-16T10:08:41;5.47;;;2.03;;
17648;SDS011;8943;51.110;-4.158;2023-04-16T10:11:10;10.07;;;2.30;;
17648;SDS011;8943;51.110;-4.158;2023-04-16T10:13:40;6.53;;;2.17;;
17648;SDS011;8943;51.110;-4.158;2023-04-16T10:16:08;8.93;;;2.20;;
17648;SDS011;8943;51.110;-4.158;2023-04-16T10:18:39;6.97;;;2.60;;
17648;SDS011;8943;51.110;-4.158;2023-04-16T10:21:09;7.20;;;1.70;;
17648;SDS011;8943;51.110;-4.158;2023-04-16T10:23:38;6.17;;;1.83;;
17648;SDS011;8943;51.110;-4.158;2023-04-16T10:26:07;11.67;;;2.57;;
17648;SDS011;8943;51.110;-4.158;2023-04-16T10:28:35;9.03;;;2.40;;
17648;SDS011;8943;51.110;-4.158;2023-04-16T10:31:06;7.60;;;2.03;;
17648;SDS011;8943;51.110;-4.158;2023-04-16T10:33:36;5.13;;;1.40;;
17648;SDS011;8943;51.110;-4.158;2023-04-16T10:36:07;7.03;;;1.53;;
17648;SDS011;8943;51.110;-4.158;2023-04-16T10:38:38;6.83;;;1.57;;
17648;SDS011;8943;51.110;-4.158;2023-04-16T10:41:07;4.80;;;1.43;;
17648;SDS011;8943;51.110;-4.158;2023-04-16T10:43:39;6.40;;;1.50;;
17648;SDS011;8943;51.110;-4.158;2023-04-16T10:46:19;4.43;;;1.23;;
17648;SDS011;8943;51.110;-4.158;2023-04-16T10:48:51;6.97;;;1.83;;
17648;SDS011;8943;51.110;-4.158;2023-04-16T10:51:24;5.40;;;1.47;;
17648;SDS011;8943;51.110;-4.158;2023-04-16T10:53:55;8.13;;;1.50;;
17648;SDS011;8943;51.110;-4.158;2023-04-16T10:56:25;8.00;;;1.40;;
17648;SDS011;8943;51.110;-4.158;2023-04-16T10:58:53;7.50;;;1.80;;
17648;SDS011;8943;51.110;-4.158;2023-04-16T11:01:29;7.93;;;2.20;;
17648;SDS011;8943;51.110;-4.158;2023-04-16T11:03:58;5.20;;;1.30;;
17648;SDS011;8943;51.110;-4.158;2023-04-16T11:06:28;6.40;;;1.67;;
17648;SDS011;8943;51.110;-4.158;2023-04-16T11:08:57;10.13;;;1.87;;
17648;SDS011;8943;51.110;-4.158;2023-04-16T11:11:25;7.47;;;1.93;;
17648;SDS011;8943;51.110;-4.158;2023-04-16T11:13:55;7.87;;;1.63;;
17648;SDS011;8943;51.110;-4.158;2023-04-16T11:16:23;7.93;;;1.73;;
17648;SDS011;8943;51.110;-4.158;2023-04-16T11:18:56;10.40;;;2.30;;
17648;SDS011;8943;51.110;-4.158;2023-04-16T11:21:24;4.43;;;1.70;;
17648;SDS011;8943;51.110;-4.158;2023-04-16T11:23:54;5.00;;;1.70;;
17648;SDS011;8943;51.110;-4.158;2023-04-16T11:26:25;4.27;;;1.70;;
17648;SDS011;8943;51.110;-4.158;2023-04-16T11:28:56;9.47;;;2.00;;
17648;SDS011;8943;51.110;-4.158;2023-04-16T11:31:25;4.77;;;1.27;;
17648;SDS011;8943;51.110;-4.158;2023-04-16T11:33:59;7.17;;;1.80;;
17648;SDS011;8943;51.110;-4.158;2023-04-16T11:36:41;5.70;;;1.90;;
17648;SDS011;8943;51.110;-4.158;2023-04-16T11:39:26;5.23;;;1.60;;
17648;SDS011;8943;51.110;-4.158;2023-04-16T11:41:54;7.93;;;1.60;;
17648;SDS011;8943;51.110;-4.158;2023-04-16T11:44:22;10.10;;;3.23;;
17648;SDS011;8943;51.110;-4.158;2023-04-16T11:46:53;13.13;;;6.07;;
17648;SDS011;8943;51.110;-4.158;2023-04-16T11:49:29;10.73;;;3.90;;
17648;SDS011;8943;51.110;-4.158;2023-04-16T11:51:57;7.87;;;2.30;;
17648;SDS011;8943;51.110;-4.158;2023-04-16T11:54:26;5.83;;;2.30;;
17648;SDS011;8943;51.110;-4.158;2023-04-16T11:57:00;6.23;;;1.77;;
17648;SDS011;8943;51.110;-4.158;2023-04-16T11:59:30;8.23;;;1.70;;
17648;SDS011;8943;51.110;-4.158;2023-04-16T12:02:38;10.57;;;2.33;;
17648;SDS011;8943;51.110;-4.158;2023-04-16T12:06:05;7.27;;;1.80;;
17648;SDS011;8943;51.110;-4.158;2023-04-16T12:08:35;6.27;;;2.17;;
17648;SDS011;8943;51.110;-4.158;2023-04-16T12:11:04;6.83;;;1.77;;
17648;SDS011;8943;51.110;-4.158;2023-04-16T12:13:32;8.00;;;1.93;;
17648;SDS011;8943;51.110;-4.158;2023-04-16T12:16:15;9.47;;;2.00;;
17648;SDS011;8943;51.110;-4.158;2023-04-16T12:18:58;11.70;;;2.00;;
17648;SDS011;8943;51.110;-4.158;2023-04-16T12:21:37;8.43;;;1.90;;
17648;SDS011;8943;51.110;-4.158;2023-04-16T12:24:07;7.67;;;2.00;;
17648;SDS011;8943;51.110;-4.158;2023-04-16T12:26:37;5.23;;;1.70;;
17648;SDS011;8943;51.110;-4.158;2023-04-16T12:29:13;6.23;;;2.20;;
17648;SDS011;8943;51.110;-4.158;2023-04-16T12:31:42;4.97;;;1.97;;
17648;SDS011;8943;51.110;-4.158;2023-04-16T12:34:11;7.83;;;2.13;;
17648;SDS011;8943;51.110;-4.158;2023-04-16T12:36:42;6.67;;;2.60;;
17648;SDS011;8943;51.110;-4.158;2023-04-16T12:39:11;14.17;;;2.70;;
17648;SDS011;8943;51.110;-4.158;2023-04-16T12:41:41;10.80;;;1.83;;
17648;SDS011;8943;51.110;-4.158;2023-04-16T12:44:10;6.77;;;2.00;;
17648;SDS011;8943;51.110;-4.158;2023-04-16T12:46:39;7.33;;;1.73;;
17648;SDS011;8943;51.110;-4.158;2023-04-16T12:49:09;8.93;;;2.00;;
17648;SDS011;8943;51.110;-4.158;2023-04-16T12:51:38;8.40;;;1.93;;
17648;SDS011;8943;51.110;-4.158;2023-04-16T12:54:07;5.40;;;1.77;;
17648;SDS011;8943;51.110;-4.158;2023-04-16T12:56:35;6.60;;;2.27;;
17648;SDS011;8943;51.110;-4.158;2023-04-16T12:59:04;5.97;;;1.90;;
17648;SDS011;8943;51.110;-4.158;2023-04-16T13:01:32;5.37;;;1.63;;
17648;SDS011;8943;51.110;-4.158;2023-04-16T13:04:02;5.67;;;2.03;;
17648;SDS011;8943;51.110;-4.158;2023-04-16T13:06:42;6.87;;;2.00;;
17648;SDS011;8943;51.110;-4.158;2023-04-16T13:09:11;7.60;;;1.93;;
17648;SDS011;8943;51.110;-4.158;2023-04-16T13:11:39;8.53;;;2.40;;
17648;SDS011;8943;51.110;-4.158;2023-04-16T13:14:08;11.40;;;2.50;;
17648;SDS011;8943;51.110;-4.158;2023-04-16T13:16:36;9.40;;;2.00;;
17648;SDS011;8943;51.110;-4.158;2023-04-16T13:19:05;7.87;;;1.90;;
17648;SDS011;8943;51.110;-4.158;2023-04-16T13:21:34;8.40;;;1.97;;
17648;SDS011;8943;51.110;-4.158;2023-04-16T13:24:02;7.40;;;2.10;;
17648;SDS011;8943;51.110;-4.158;2023-04-16T13:26:32;12.20;;;2.20;;
17648;SDS011;8943;51.110;-4.158;2023-04-16T13:29:00;7.70;;;2.00;;
17648;SDS011;8943;51.110;-4.158;2023-04-16T13:31:28;8.33;;;1.67;;
17648;SDS011;8943;51.110;-4.158;2023-04-16T13:33:57;5.37;;;2.20;;
17648;SDS011;8943;51.110;-4.158;2023-04-16T13:36:25;8.50;;;2.77;;
17648;SDS011;8943;51.110;-4.158;2023-04-16T13:38:55;17.70;;;2.13;;
17648;SDS011;8943;51.110;-4.158;2023-04-16T13:41:23;7.10;;;2.43;;
17648;SDS011;8943;51.110;-4.158;2023-04-16T13:43:53;8.23;;;2.47;;
17648;SDS011;8943;51.110;-4.158;2023-04-16T13:46:21;10.30;;;3.20;;
17648;SDS011;8943;51.110;-4.158;2023-04-16T13:48:50;9.07;;;3.57;;
17648;SDS011;8943;51.110;-4.158;2023-04-16T13:51:19;9.87;;;3.00;;
17648;SDS011;8943;51.110;-4.158;2023-04-16T13:53:47;17.60;;;3.43;;
17648;SDS011;8943;51.110;-4.158;2023-04-16T13:56:15;12.23;;;3.03;;
17648;SDS011;8943;51.110;-4.158;2023-04-16T13:58:43;6.40;;;2.10;;
17648;SDS011;8943;51.110;-4.158;2023-04-16T14:01:12;12.33;;;2.27;;
17648;SDS011;8943;51.110;-4.158;2023-04-16T14:03:41;8.63;;;2.03;;
17648;SDS011;8943;51.110;-4.158;2023-04-16T14:06:09;8.50;;;2.70;;
17648;SDS011;8943;51.110;-4.158;2023-04-16T14:08:38;10.43;;;1.80;;
17648;SDS011;8943;51.110;-4.158;2023-04-16T14:11:06;6.43;;;1.50;;
17648;SDS011;8943;51.110;-4.158;2023-04-16T14:13:35;11.00;;;2.70;;
17648;SDS011;8943;51.110;-4.158;2023-04-16T14:16:03;9.67;;;1.90;;
17648;SDS011;8943;51.110;-4.158;2023-04-16T14:18:33;5.33;;;1.27;;
17648;SDS011;8943;51.110;-4.158;2023-04-16T14:21:06;9.50;;;2.30;;
17648;SDS011;8943;51.110;-4.158;2023-04-16T14:23:34;7.27;;;2.17;;
17648;SDS011;8943;51.110;-4.158;2023-04-16T14:26:02;6.10;;;1.67;;
17648;SDS011;8943;51.110;-4.158;2023-04-16T14:28:30;7.23;;;1.90;;
17648;SDS011;8943;51.110;-4.158;2023-04-16T14:30:58;8.07;;;1.73;;
17648;SDS011;8943;51.110;-4.158;2023-04-16T14:33:26;5.67;;;1.83;;
17648;SDS011;8943;51.110;-4.158;2023-04-16T14:35:56;4.83;;;2.03;;
17648;SDS011;8943;51.110;-4.158;2023-04-16T14:38:27;5.97;;;1.90;;
17648;SDS011;8943;51.110;-4.158;2023-04-16T14:40:56;7.43;;;1.93;;
17648;SDS011;8943;51.110;-4.158;2023-04-16T14:43:25;11.80;;;1.70;;
17648;SDS011;8943;51.110;-4.158;2023-04-16T14:45:54;5.10;;;1.53;;
17648;SDS011;8943;51.110;-4.158;2023-04-16T14:48:24;5.93;;;1.70;;
17648;SDS011;8943;51.110;-4.158;2023-04-16T14:50:52;5.70;;;1.97;;
17648;SDS011;8943;51.110;-4.158;2023-04-16T14:53:22;5.40;;;1.47;;
17648;SDS011;8943;51.110;-4.158;2023-04-16T14:55:50;7.03;;;4.07;;
17648;SDS011;8943;51.110;-4.158;2023-04-16T14:58:19;6.90;;;2.00;;
17648;SDS011;8943;51.110;-4.158;2023-04-16T15:00:47;6.70;;;2.13;;
17648;SDS011;8943;51.110;-4.158;2023-04-16T15:03:15;3.43;;;1.70;;
17648;SDS011;8943;51.110;-4.158;2023-04-16T15:05:44;5.67;;;2.07;;
17648;SDS011;8943;51.110;-4.158;2023-04-16T15:08:16;7.73;;;2.27;;
17648;SDS011;8943;51.110;-4.158;2023-04-16T15:10:45;5.60;;;1.60;;
17648;SDS011;8943;51.110;-4.158;2023-04-16T15:13:13;5.83;;;2.10;;
17648;SDS011;8943;51.110;-4.158;2023-04-16T15:15:42;10.27;;;2.20;;
17648;SDS011;8943;51.110;-4.158;2023-04-16T15:18:10;6.77;;;2.03;;
17648;SDS011;8943;51.110;-4.158;2023-04-16T15:20:38;5.73;;;1.60;;
17648;SDS011;8943;51.110;-4.158;2023-04-16T15:23:06;9.27;;;2.10;;
17648;SDS011;8943;51.110;-4.158;2023-04-16T15:25:35;9.43;;;2.20;;
17648;SDS011;8943;51.110;-4.158;2023-04-16T15:28:05;6.50;;;2.23;;
17648;SDS011;8943;51.110;-4.158;2023-04-16T15:30:33;5.97;;;1.70;;
17648;SDS011;8943;51.110;-4.158;2023-04-16T15:33:01;4.43;;;1.63;;
17648;SDS011;8943;51.110;-4.158;2023-04-16T15:35:29;8.47;;;1.60;;
17648;SDS011;8943;51.110;-4.158;2023-04-16T15:37:57;6.43;;;2.13;;
17648;SDS011;8943;51.110;-4.158;2023-04-16T15:40:25;3.43;;;1.70;;
17648;SDS011;8943;51.110;-4.158;2023-04-16T15:42:54;6.20;;;2.03;;
17648;SDS011;8943;51.110;-4.158;2023-04-16T15:45:23;5.53;;;2.20;;
17648;SDS011;8943;51.110;-4.158;2023-04-16T15:47:53;8.87;;;2.93;;
17648;SDS011;8943;51.110;-4.158;2023-04-16T15:50:21;8.07;;;4.03;;
17648;SDS011;8943;51.110;-4.158;2023-04-16T15:52:50;7.87;;;2.50;;
17648;SDS011;8943;51.110;-4.158;2023-04-16T15:55:18;8.60;;;2.80;;
17648;SDS011;8943;51.110;-4.158;2023-04-16T15:57:46;7.67;;;4.37;;
17648;SDS011;8943;51.110;-4.158;2023-04-16T16:00:14;6.80;;;3.10;;
17648;SDS011;8943;51.110;-4.158;2023-04-16T16:02:44;7.40;;;2.70;;
17648;SDS011;8943;51.110;-4.158;2023-04-16T16:05:14;11.40;;;5.13;;
17648;SDS011;8943;51.110;-4.158;2023-04-16T16:07:43;8.30;;;2.80;;
17648;SDS011;8943;51.110;-4.158;2023-04-16T16:10:11;9.87;;;2.70;;
17648;SDS011;8943;51.110;-4.158;2023-04-16T16:12:39;7.57;;;3.03;;
17648;SDS011;8943;51.110;-4.158;2023-04-16T16:15:08;8.30;;;3.07;;
17648;SDS011;8943;51.110;-4.158;2023-04-16T16:17:36;15.50;;;4.50;;
17648;SDS011;8943;51.110;-4.158;2023-04-16T16:20:07;9.03;;;3.77;;
17648;SDS011;8943;51.110;-4.158;2023-04-16T16:22:36;9.47;;;4.63;;
17648;SDS011;8943;51.110;-4.158;2023-04-16T16:25:05;6.60;;;4.13;;
17648;SDS011;8943;51.110;-4.158;2023-04-16T16:27:35;10.33;;;4.80;;
17648;SDS011;8943;51.110;-4.158;2023-04-16T16:30:03;10.90;;;6.67;;
17648;SDS011;8943;51.110;-4.158;2023-04-16T16:32:33;9.97;;;5.40;;
17648;SDS011;8943;51.110;-4.158;2023-04-16T16:35:02;10.60;;;5.00;;
17648;SDS011;8943;51.110;-4.158;2023-04-16T16:37:31;7.47;;;3.17;;
17648;SDS011;8943;51.110;-4.158;2023-04-16T16:39:59;7.60;;;3.67;;
17648;SDS011;8943;51.110;-4.158;2023-04-16T16:42:27;13.27;;;7.63;;
17648;SDS011;8943;51.110;-4.158;2023-04-16T16:44:55;7.53;;;3.60;;
17648;SDS011;8943;51.110;-4.158;2023-04-16T16:47:23;12.00;;;4.37;;
17648;SDS011;8943;51.110;-4.158;2023-04-16T16:49:52;7.83;;;4.00;;
17648;SDS011;8943;51.110;-4.158;2023-04-16T16:52:21;9.40;;;3.50;;
17648;SDS011;8943;51.110;-4.158;2023-04-16T16:54:51;9.00;;;4.07;;
17648;SDS011;8943;51.110;-4.158;2023-04-16T16:57:22;6.33;;;3.13;;
17648;SDS011;8943;51.110;-4.158;2023-04-16T16:59:50;6.50;;;3.53;;
17648;SDS011;8943;51.110;-4.158;2023-04-16T17:02:19;7.20;;;2.50;;
17648;SDS011;8943;51.110;-4.158;2023-04-16T17:04:48;7.33;;;3.00;;
17648;SDS011;8943;51.110;-4.158;2023-04-16T17:07:18;5.90;;;2.50;;
17648;SDS011;8943;51.110;-4.158;2023-04-16T17:09:46;4.20;;;2.13;;
17648;SDS011;8943;51.110;-4.158;2023-04-16T17:12:15;5.27;;;2.83;;
17648;SDS011;8943;51.110;-4.158;2023-04-16T17:14:43;6.87;;;3.83;;
17648;SDS011;8943;51.110;-4.158;2023-04-16T17:17:16;8.37;;;4.00;;
17648;SDS011;8943;51.110;-4.158;2023-04-16T17:19:44;9.30;;;4.57;;
17648;SDS011;8943;51.110;-4.158;2023-04-16T17:22:12;8.67;;;4.50;;
17648;SDS011;8943;51.110;-4.158;2023-04-16T17:24:40;10.83;;;4.40;;
17648;SDS011;8943;51.110;-4.158;2023-04-16T17:27:08;9.00;;;4.00;;
17648;SDS011;8943;51.110;-4.158;2023-04-16T17:29:38;8.37;;;3.80;;
17648;SDS011;8943;51.110;-4.158;2023-04-16T17:32:06;6.37;;;4.03;;
17648;SDS011;8943;51.110;-4.158;2023-04-16T17:34:38;8.37;;;4.30;;
17648;SDS011;8943;51.110;-4.158;2023-04-16T17:37:59;5.13;;;3.10;;
17648;SDS011;8943;51.110;-4.158;2023-04-16T17:40:30;5.63;;;3.50;;
17648;SDS011;8943;51.110;-4.158;2023-04-16T17:42:59;9.50;;;5.43;;
17648;SDS011;8943;51.110;-4.158;2023-04-16T17:45:30;5.83;;;2.80;;
17648;SDS011;8943;51.110;-4.158;2023-04-16T17:47:59;8.50;;;5.03;;
17648;SDS011;8943;51.110;-4.158;2023-04-16T17:50:27;8.63;;;3.83;;
17648;SDS011;8943;51.110;-4.158;2023-04-16T17:52:56;7.77;;;3.87;;
17648;SDS011;8943;51.110;-4.158;2023-04-16T17:55:33;9.37;;;3.60;;
17648;SDS011;8943;51.110;-4.158;2023-04-16T17:58:02;6.07;;;3.00;;
17648;SDS011;8943;51.110;-4.158;2023-04-16T18:00:31;8.40;;;3.10;;
17648;SDS011;8943;51.110;-4.158;2023-04-16T18:03:00;11.23;;;3.63;;
17648;SDS011;8943;51.110;-4.158;2023-04-16T18:05:29;8.37;;;3.07;;
17648;SDS011;8943;51.110;-4.158;2023-04-16T18:07:57;7.97;;;3.40;;
17648;SDS011;8943;51.110;-4.158;2023-04-16T18:10:26;5.43;;;2.97;;
17648;SDS011;8943;51.110;-4.158;2023-04-16T18:12:56;8.87;;;3.30;;
17648;SDS011;8943;51.110;-4.158;2023-04-16T18:15:25;6.30;;;4.07;;
17648;SDS011;8943;51.110;-4.158;2023-04-16T18:17:55;12.87;;;6.83;;
17648;SDS011;8943;51.110;-4.158;2023-04-16T18:20:23;8.83;;;3.93;;
17648;SDS011;8943;51.110;-4.158;2023-04-16T18:22:51;9.80;;;4.10;;